sensor_id;sensor_type;location;lat;lon;timestamp;P1;durP1;ratioP1;P2;durP2;ratioP2
21647;SDS011;10985;54.182;7.890;2023-08-01T00:00:55;17.48;;;6.10;;
21647;SDS011;10985;54.182;7.890;2023-08-01T00:03:21;18.65;;;6.70;;
21647;SDS011;10985;54.182;7.890;2023-08-01T00:05:46;16.77;;;6.57;;
21647;SDS011;10985;54.182;7.890;2023-08-01T00:08:12;22.40;;;6.38;;
21647;SDS011;10985;54.182;7.890;2023-08-01T00:10:38;24.17;;;5.90;;
21647;SDS011;10985;54.182;7.890;2023-08-01T00:13:04;22.55;;;7.32;;
21647;SDS011;10985;54.182;7.890;2023-08-01T00:15:29;23.90;;;6.68;;
21647;SDS011;10985;54.182;7.890;2023-08-01T00:17:55;21.48;;;6.43;;
21647;SDS011;10985;54.182;7.890;2023-08-01T00:20:21;19.55;;;5.85;;
21647;SDS011;10985;54.182;7.890;2023-08-01T00:22:46;19.23;;;5.47;;
21647;SDS011;10985;54.182;7.890;2023-08-01T00:25:12;14.65;;;4.45;;
21647;SDS011;10985;54.182;7.890;2023-08-01T00:27:38;14.70;;;5.18;;
21647;SDS011;10985;54.182;7.890;2023-08-01T00:30:04;17.05;;;4.18;;
21647;SDS011;10985;54.182;7.890;2023-08-01T00:32:30;15.20;;;4.50;;
21647;SDS011;10985;54.182;7.890;2023-08-01T00:37:23;15.25;;;4.70;;
21647;SDS011;10985;54.182;7.890;2023-08-01T00:39:49;15.55;;;4.80;;
21647;SDS011;10985;54.182;7.890;2023-08-01T00:42:15;13.65;;;4.22;;
21647;SDS011;10985;54.182;7.890;2023-08-01T00:44:41;20.58;;;5.15;;
21647;SDS011;10985;54.182;7.890;2023-08-01T00:47:06;14.82;;;4.93;;
21647;SDS011;10985;54.182;7.890;2023-08-01T00:49:32;13.23;;;4.75;;
21647;SDS011;10985;54.182;7.890;2023-08-01T00:51:58;11.88;;;3.83;;
21647;SDS011;10985;54.182;7.890;2023-08-01T00:54:24;12.70;;;4.55;;
21647;SDS011;10985;54.182;7.890;2023-08-01T00:56:50;8.85;;;4.00;;
21647;SDS011;10985;54.182;7.890;2023-08-01T00:59:16;4.93;;;3.20;;
21647;SDS011;10985;54.182;7.890;2023-08-01T01:01:41;11.30;;;3.63;;
21647;SDS011;10985;54.182;7.890;2023-08-01T01:04:07;7.75;;;3.20;;
21647;SDS011;10985;54.182;7.890;2023-08-01T01:09:01;13.30;;;3.83;;
21647;SDS011;10985;54.182;7.890;2023-08-01T01:11:29;11.15;;;3.72;;
21647;SDS011;10985;54.182;7.890;2023-08-01T01:13:55;14.27;;;3.95;;
21647;SDS011;10985;54.182;7.890;2023-08-01T01:16:20;12.45;;;3.92;;
21647;SDS011;10985;54.182;7.890;2023-08-01T01:18:46;9.25;;;3.20;;
21647;SDS011;10985;54.182;7.890;2023-08-01T01:21:11;12.43;;;3.95;;
21647;SDS011;10985;54.182;7.890;2023-08-01T01:23:37;13.50;;;3.13;;
21647;SDS011;10985;54.182;7.890;2023-08-01T01:26:04;8.27;;;3.53;;
21647;SDS011;10985;54.182;7.890;2023-08-01T01:28:32;9.13;;;3.38;;
21647;SDS011;10985;54.182;7.890;2023-08-01T01:30:58;12.25;;;3.55;;
21647;SDS011;10985;54.182;7.890;2023-08-01T01:33:25;11.68;;;3.58;;
21647;SDS011;10985;54.182;7.890;2023-08-01T01:35:51;7.07;;;2.97;;
21647;SDS011;10985;54.182;7.890;2023-08-01T01:38:16;5.97;;;2.38;;
21647;SDS011;10985;54.182;7.890;2023-08-01T01:40:42;9.48;;;2.92;;
21647;SDS011;10985;54.182;7.890;2023-08-01T01:43:07;7.03;;;2.45;;
21647;SDS011;10985;54.182;7.890;2023-08-01T01:45:33;9.00;;;2.97;;
21647;SDS011;10985;54.182;7.890;2023-08-01T01:47:58;13.30;;;2.88;;
21647;SDS011;10985;54.182;7.890;2023-08-01T01:50:24;12.15;;;3.33;;
21647;SDS011;10985;54.182;7.890;2023-08-01T01:52:49;7.85;;;3.15;;
21647;SDS011;10985;54.182;7.890;2023-08-01T01:55:15;7.13;;;2.78;;
21647;SDS011;10985;54.182;7.890;2023-08-01T01:57:40;9.10;;;2.55;;
21647;SDS011;10985;54.182;7.890;2023-08-01T02:00:06;6.55;;;2.25;;
21647;SDS011;10985;54.182;7.890;2023-08-01T02:02:35;9.52;;;2.58;;
21647;SDS011;10985;54.182;7.890;2023-08-01T02:05:01;9.07;;;2.70;;
21647;SDS011;10985;54.182;7.890;2023-08-01T02:07:26;15.50;;;3.13;;
21647;SDS011;10985;54.182;7.890;2023-08-01T02:09:52;13.88;;;3.47;;
21647;SDS011;10985;54.182;7.890;2023-08-01T02:12:17;26.13;;;4.25;;
21647;SDS011;10985;54.182;7.890;2023-08-01T02:14:43;17.23;;;4.03;;
21647;SDS011;10985;54.182;7.890;2023-08-01T02:17:08;28.90;;;4.68;;
21647;SDS011;10985;54.182;7.890;2023-08-01T02:19:34;21.42;;;3.85;;
21647;SDS011;10985;54.182;7.890;2023-08-01T02:21:59;6.57;;;3.50;;
21647;SDS011;10985;54.182;7.890;2023-08-01T02:24:25;8.13;;;3.47;;
21647;SDS011;10985;54.182;7.890;2023-08-01T02:26:50;7.97;;;3.50;;
21647;SDS011;10985;54.182;7.890;2023-08-01T02:29:16;9.45;;;3.97;;
21647;SDS011;10985;54.182;7.890;2023-08-01T02:31:42;18.08;;;5.00;;
21647;SDS011;10985;54.182;7.890;2023-08-01T02:34:07;7.53;;;4.53;;
21647;SDS011;10985;54.182;7.890;2023-08-01T02:36:33;8.05;;;5.15;;
21647;SDS011;10985;54.182;7.890;2023-08-01T02:38:58;18.35;;;5.68;;
21647;SDS011;10985;54.182;7.890;2023-08-01T02:41:24;18.35;;;5.93;;
21647;SDS011;10985;54.182;7.890;2023-08-01T02:43:49;10.68;;;4.93;;
21647;SDS011;10985;54.182;7.890;2023-08-01T02:46:15;14.63;;;5.50;;
21647;SDS011;10985;54.182;7.890;2023-08-01T02:48:40;12.82;;;5.90;;
21647;SDS011;10985;54.182;7.890;2023-08-01T02:51:06;14.63;;;6.00;;
21647;SDS011;10985;54.182;7.890;2023-08-01T02:53:34;15.55;;;6.07;;
21647;SDS011;10985;54.182;7.890;2023-08-01T02:56:00;17.25;;;5.55;;
21647;SDS011;10985;54.182;7.890;2023-08-01T02:58:25;19.30;;;5.85;;
21647;SDS011;10985;54.182;7.890;2023-08-01T03:00:51;13.10;;;5.68;;
21647;SDS011;10985;54.182;7.890;2023-08-01T03:03:16;18.65;;;6.03;;
21647;SDS011;10985;54.182;7.890;2023-08-01T03:05:42;12.30;;;5.30;;
21647;SDS011;10985;54.182;7.890;2023-08-01T03:08:07;12.55;;;4.95;;
21647;SDS011;10985;54.182;7.890;2023-08-01T03:10:33;7.85;;;5.15;;
21647;SDS011;10985;54.182;7.890;2023-08-01T03:12:58;7.47;;;4.82;;
21647;SDS011;10985;54.182;7.890;2023-08-01T03:15:24;10.82;;;4.88;;
21647;SDS011;10985;54.182;7.890;2023-08-01T03:17:49;5.80;;;4.75;;
21647;SDS011;10985;54.182;7.890;2023-08-01T03:20:15;10.70;;;5.40;;
21647;SDS011;10985;54.182;7.890;2023-08-01T03:22:41;13.13;;;6.32;;
21647;SDS011;10985;54.182;7.890;2023-08-01T03:25:06;14.68;;;5.68;;
21647;SDS011;10985;54.182;7.890;2023-08-01T03:27:36;9.85;;;6.13;;
21647;SDS011;10985;54.182;7.890;2023-08-01T03:30:02;6.55;;;5.65;;
21647;SDS011;10985;54.182;7.890;2023-08-01T03:32:29;12.90;;;6.05;;
21647;SDS011;10985;54.182;7.890;2023-08-01T03:34:55;11.75;;;5.70;;
21647;SDS011;10985;54.182;7.890;2023-08-01T03:37:20;11.65;;;6.05;;
21647;SDS011;10985;54.182;7.890;2023-08-01T03:39:46;6.78;;;5.85;;
21647;SDS011;10985;54.182;7.890;2023-08-01T03:42:11;11.82;;;6.10;;
21647;SDS011;10985;54.182;7.890;2023-08-01T03:44:37;9.35;;;5.90;;
21647;SDS011;10985;54.182;7.890;2023-08-01T03:47:02;13.00;;;6.75;;
21647;SDS011;10985;54.182;7.890;2023-08-01T03:49:28;12.90;;;6.07;;
21647;SDS011;10985;54.182;7.890;2023-08-01T03:51:54;12.15;;;6.32;;
21647;SDS011;10985;54.182;7.890;2023-08-01T03:54:19;14.73;;;5.97;;
21647;SDS011;10985;54.182;7.890;2023-08-01T03:56:45;17.33;;;6.75;;
21647;SDS011;10985;54.182;7.890;2023-08-01T03:59:11;21.10;;;6.35;;
21647;SDS011;10985;54.182;7.890;2023-08-01T04:01:38;11.00;;;4.95;;
21647;SDS011;10985;54.182;7.890;2023-08-01T04:04:03;14.93;;;5.28;;
21647;SDS011;10985;54.182;7.890;2023-08-01T04:06:29;10.80;;;4.45;;
21647;SDS011;10985;54.182;7.890;2023-08-01T04:08:54;6.40;;;4.00;;
21647;SDS011;10985;54.182;7.890;2023-08-01T04:11:21;9.40;;;3.67;;
21647;SDS011;10985;54.182;7.890;2023-08-01T04:13:47;7.32;;;4.50;;
21647;SDS011;10985;54.182;7.890;2023-08-01T04:16:12;8.02;;;4.03;;
21647;SDS011;10985;54.182;7.890;2023-08-01T04:18:38;7.35;;;4.20;;
21647;SDS011;10985;54.182;7.890;2023-08-01T04:21:04;10.23;;;4.25;;
21647;SDS011;10985;54.182;7.890;2023-08-01T04:23:29;9.98;;;4.88;;
21647;SDS011;10985;54.182;7.890;2023-08-01T04:25:55;10.05;;;5.13;;
21647;SDS011;10985;54.182;7.890;2023-08-01T04:28:20;13.32;;;4.65;;
21647;SDS011;10985;54.182;7.890;2023-08-01T04:30:49;7.32;;;4.03;;
21647;SDS011;10985;54.182;7.890;2023-08-01T04:33:15;9.55;;;4.20;;
21647;SDS011;10985;54.182;7.890;2023-08-01T04:35:41;12.90;;;4.70;;
21647;SDS011;10985;54.182;7.890;2023-08-01T04:38:07;9.50;;;5.13;;
21647;SDS011;10985;54.182;7.890;2023-08-01T04:40:33;10.27;;;4.20;;
21647;SDS011;10985;54.182;7.890;2023-08-01T04:43:00;6.90;;;4.00;;
21647;SDS011;10985;54.182;7.890;2023-08-01T04:45:26;8.95;;;3.78;;
21647;SDS011;10985;54.182;7.890;2023-08-01T04:47:52;8.63;;;4.43;;
21647;SDS011;10985;54.182;7.890;2023-08-01T04:50:18;7.22;;;3.58;;
21647;SDS011;10985;54.182;7.890;2023-08-01T04:52:43;8.27;;;3.90;;
21647;SDS011;10985;54.182;7.890;2023-08-01T04:55:09;10.80;;;4.40;;
21647;SDS011;10985;54.182;7.890;2023-08-01T04:57:34;10.20;;;4.07;;
21647;SDS011;10985;54.182;7.890;2023-08-01T05:00:00;12.95;;;5.10;;
21647;SDS011;10985;54.182;7.890;2023-08-01T05:02:25;31.40;;;5.95;;
21647;SDS011;10985;54.182;7.890;2023-08-01T05:04:51;40.60;;;5.60;;
21647;SDS011;10985;54.182;7.890;2023-08-01T05:07:16;20.55;;;5.45;;
21647;SDS011;10985;54.182;7.890;2023-08-01T05:09:42;48.13;;;6.32;;
21647;SDS011;10985;54.182;7.890;2023-08-01T05:12:07;33.45;;;6.65;;
21647;SDS011;10985;54.182;7.890;2023-08-01T05:14:34;15.75;;;4.28;;
21647;SDS011;10985;54.182;7.890;2023-08-01T05:16:59;22.50;;;5.90;;
21647;SDS011;10985;54.182;7.890;2023-08-01T05:19:25;18.90;;;4.85;;
21647;SDS011;10985;54.182;7.890;2023-08-01T05:21:50;14.18;;;4.65;;
21647;SDS011;10985;54.182;7.890;2023-08-01T05:24:16;18.02;;;5.03;;
21647;SDS011;10985;54.182;7.890;2023-08-01T05:26:41;16.80;;;4.68;;
21647;SDS011;10985;54.182;7.890;2023-08-01T05:29:07;15.70;;;4.35;;
21647;SDS011;10985;54.182;7.890;2023-08-01T05:31:32;9.50;;;4.00;;
21647;SDS011;10985;54.182;7.890;2023-08-01T05:33:58;12.98;;;3.90;;
21647;SDS011;10985;54.182;7.890;2023-08-01T05:36:23;11.38;;;4.28;;
21647;SDS011;10985;54.182;7.890;2023-08-01T05:38:49;9.48;;;4.75;;
21647;SDS011;10985;54.182;7.890;2023-08-01T05:41:14;10.32;;;4.75;;
21647;SDS011;10985;54.182;7.890;2023-08-01T05:43:40;6.85;;;4.53;;
21647;SDS011;10985;54.182;7.890;2023-08-01T05:46:05;7.78;;;4.70;;
21647;SDS011;10985;54.182;7.890;2023-08-01T05:48:31;9.48;;;4.32;;
21647;SDS011;10985;54.182;7.890;2023-08-01T05:50:56;9.65;;;4.65;;
21647;SDS011;10985;54.182;7.890;2023-08-01T05:53:23;11.13;;;5.25;;
21647;SDS011;10985;54.182;7.890;2023-08-01T05:55:49;7.68;;;4.50;;
21647;SDS011;10985;54.182;7.890;2023-08-01T05:58:15;11.35;;;4.85;;
21647;SDS011;10985;54.182;7.890;2023-08-01T06:00:41;8.18;;;4.05;;
21647;SDS011;10985;54.182;7.890;2023-08-01T06:03:06;7.28;;;4.32;;
21647;SDS011;10985;54.182;7.890;2023-08-01T06:05:32;14.32;;;4.18;;
21647;SDS011;10985;54.182;7.890;2023-08-01T06:07:57;8.05;;;4.18;;
21647;SDS011;10985;54.182;7.890;2023-08-01T06:10:23;12.68;;;4.40;;
21647;SDS011;10985;54.182;7.890;2023-08-01T06:12:49;9.35;;;4.63;;
21647;SDS011;10985;54.182;7.890;2023-08-01T06:15:15;8.00;;;4.22;;
21647;SDS011;10985;54.182;7.890;2023-08-01T06:17:40;17.52;;;5.82;;
21647;SDS011;10985;54.182;7.890;2023-08-01T06:20:06;27.95;;;6.10;;
21647;SDS011;10985;54.182;7.890;2023-08-01T06:22:32;36.10;;;6.95;;
21647;SDS011;10985;54.182;7.890;2023-08-01T06:24:58;25.45;;;6.10;;
21647;SDS011;10985;54.182;7.890;2023-08-01T06:27:23;30.83;;;6.53;;
21647;SDS011;10985;54.182;7.890;2023-08-01T06:29:49;21.05;;;5.68;;
21647;SDS011;10985;54.182;7.890;2023-08-01T06:32:14;21.90;;;5.28;;
21647;SDS011;10985;54.182;7.890;2023-08-01T06:34:40;15.45;;;5.07;;
21647;SDS011;10985;54.182;7.890;2023-08-01T06:37:06;20.42;;;4.05;;
21647;SDS011;10985;54.182;7.890;2023-08-01T06:39:31;16.83;;;4.82;;
21647;SDS011;10985;54.182;7.890;2023-08-01T06:41:57;12.90;;;4.25;;
21647;SDS011;10985;54.182;7.890;2023-08-01T06:44:22;11.32;;;3.35;;
21647;SDS011;10985;54.182;7.890;2023-08-01T06:46:47;8.68;;;3.08;;
21647;SDS011;10985;54.182;7.890;2023-08-01T06:49:13;15.10;;;2.92;;
21647;SDS011;10985;54.182;7.890;2023-08-01T06:51:38;11.43;;;3.83;;
21647;SDS011;10985;54.182;7.890;2023-08-01T06:54:04;15.50;;;3.35;;
21647;SDS011;10985;54.182;7.890;2023-08-01T06:56:29;16.02;;;3.97;;
21647;SDS011;10985;54.182;7.890;2023-08-01T06:58:55;12.75;;;4.13;;
21647;SDS011;10985;54.182;7.890;2023-08-01T07:01:20;15.73;;;4.55;;
21647;SDS011;10985;54.182;7.890;2023-08-01T07:03:47;10.73;;;3.85;;
21647;SDS011;10985;54.182;7.890;2023-08-01T07:06:13;13.93;;;4.18;;
21647;SDS011;10985;54.182;7.890;2023-08-01T07:08:38;11.20;;;4.63;;
21647;SDS011;10985;54.182;7.890;2023-08-01T07:11:04;11.20;;;3.72;;
21647;SDS011;10985;54.182;7.890;2023-08-01T07:13:29;15.95;;;4.80;;
21647;SDS011;10985;54.182;7.890;2023-08-01T07:15:55;15.25;;;5.07;;
21647;SDS011;10985;54.182;7.890;2023-08-01T07:18:20;9.38;;;3.97;;
21647;SDS011;10985;54.182;7.890;2023-08-01T07:20:46;8.43;;;3.10;;
21647;SDS011;10985;54.182;7.890;2023-08-01T07:23:11;11.38;;;3.83;;
21647;SDS011;10985;54.182;7.890;2023-08-01T07:25:37;6.18;;;3.20;;
21647;SDS011;10985;54.182;7.890;2023-08-01T07:28:02;10.05;;;2.92;;
21647;SDS011;10985;54.182;7.890;2023-08-01T07:30:28;8.00;;;3.13;;
21647;SDS011;10985;54.182;7.890;2023-08-01T07:32:54;12.75;;;3.47;;
21647;SDS011;10985;54.182;7.890;2023-08-01T07:35:19;8.45;;;2.90;;
21647;SDS011;10985;54.182;7.890;2023-08-01T07:37:45;10.18;;;3.00;;
21647;SDS011;10985;54.182;7.890;2023-08-01T07:40:10;11.05;;;2.95;;
21647;SDS011;10985;54.182;7.890;2023-08-01T07:42:36;13.38;;;3.28;;
21647;SDS011;10985;54.182;7.890;2023-08-01T07:45:01;5.10;;;2.53;;
21647;SDS011;10985;54.182;7.890;2023-08-01T07:47:27;12.25;;;3.03;;
21647;SDS011;10985;54.182;7.890;2023-08-01T07:49:53;7.82;;;2.20;;
21647;SDS011;10985;54.182;7.890;2023-08-01T07:52:18;9.43;;;3.05;;
21647;SDS011;10985;54.182;7.890;2023-08-01T07:54:44;10.15;;;2.20;;
21647;SDS011;10985;54.182;7.890;2023-08-01T07:57:09;7.20;;;3.58;;
21647;SDS011;10985;54.182;7.890;2023-08-01T07:59:36;7.07;;;2.75;;
21647;SDS011;10985;54.182;7.890;2023-08-01T08:02:01;7.40;;;2.38;;
21647;SDS011;10985;54.182;7.890;2023-08-01T08:04:27;8.98;;;2.70;;
21647;SDS011;10985;54.182;7.890;2023-08-01T08:06:52;10.18;;;3.45;;
21647;SDS011;10985;54.182;7.890;2023-08-01T08:09:19;7.80;;;2.35;;
21647;SDS011;10985;54.182;7.890;2023-08-01T08:11:47;9.10;;;2.10;;
21647;SDS011;10985;54.182;7.890;2023-08-01T08:14:13;4.03;;;2.00;;
21647;SDS011;10985;54.182;7.890;2023-08-01T08:16:40;9.52;;;2.88;;
21647;SDS011;10985;54.182;7.890;2023-08-01T08:19:05;7.53;;;2.13;;
21647;SDS011;10985;54.182;7.890;2023-08-01T08:21:31;4.78;;;2.08;;
21647;SDS011;10985;54.182;7.890;2023-08-01T08:23:56;5.43;;;1.92;;
21647;SDS011;10985;54.182;7.890;2023-08-01T08:26:22;4.13;;;1.52;;
21647;SDS011;10985;54.182;7.890;2023-08-01T08:28:48;7.55;;;2.13;;
21647;SDS011;10985;54.182;7.890;2023-08-01T08:31:14;9.20;;;2.58;;
21647;SDS011;10985;54.182;7.890;2023-08-01T08:33:40;6.45;;;1.75;;
21647;SDS011;10985;54.182;7.890;2023-08-01T08:36:05;9.55;;;2.00;;
21647;SDS011;10985;54.182;7.890;2023-08-01T08:38:31;6.55;;;2.50;;
21647;SDS011;10985;54.182;7.890;2023-08-01T08:41:09;9.55;;;2.17;;
21647;SDS011;10985;54.182;7.890;2023-08-01T08:43:38;7.13;;;2.00;;
21647;SDS011;10985;54.182;7.890;2023-08-01T08:46:06;8.15;;;2.47;;
21647;SDS011;10985;54.182;7.890;2023-08-01T08:48:33;3.63;;;1.75;;
21647;SDS011;10985;54.182;7.890;2023-08-01T08:51:00;7.70;;;2.13;;
21647;SDS011;10985;54.182;7.890;2023-08-01T08:53:28;9.00;;;2.35;;
21647;SDS011;10985;54.182;7.890;2023-08-01T08:55:55;4.88;;;2.05;;
21647;SDS011;10985;54.182;7.890;2023-08-01T08:58:20;4.30;;;2.28;;
21647;SDS011;10985;54.182;7.890;2023-08-01T09:00:48;5.10;;;1.92;;
21647;SDS011;10985;54.182;7.890;2023-08-01T09:03:14;8.05;;;2.25;;
21647;SDS011;10985;54.182;7.890;2023-08-01T09:05:44;5.60;;;2.28;;
21647;SDS011;10985;54.182;7.890;2023-08-01T09:08:24;8.20;;;2.25;;
21647;SDS011;10985;54.182;7.890;2023-08-01T09:10:53;10.82;;;2.08;;
21647;SDS011;10985;54.182;7.890;2023-08-01T09:13:18;8.32;;;1.83;;
21647;SDS011;10985;54.182;7.890;2023-08-01T09:15:44;9.70;;;2.17;;
21647;SDS011;10985;54.182;7.890;2023-08-01T09:18:10;4.60;;;1.83;;
21647;SDS011;10985;54.182;7.890;2023-08-01T09:20:43;7.60;;;2.10;;
21647;SDS011;10985;54.182;7.890;2023-08-01T09:23:13;6.93;;;2.00;;
21647;SDS011;10985;54.182;7.890;2023-08-01T09:25:39;6.70;;;1.77;;
21647;SDS011;10985;54.182;7.890;2023-08-01T09:30:46;8.63;;;2.70;;
21647;SDS011;10985;54.182;7.890;2023-08-01T09:33:15;8.60;;;2.22;;
21647;SDS011;10985;54.182;7.890;2023-08-01T09:35:41;8.45;;;1.80;;
21647;SDS011;10985;54.182;7.890;2023-08-01T09:38:09;5.90;;;2.10;;
21647;SDS011;10985;54.182;7.890;2023-08-01T09:40:39;5.18;;;1.77;;
21647;SDS011;10985;54.182;7.890;2023-08-01T09:43:05;5.80;;;1.92;;
21647;SDS011;10985;54.182;7.890;2023-08-01T09:45:31;6.80;;;1.52;;
21647;SDS011;10985;54.182;7.890;2023-08-01T09:47:59;7.07;;;1.80;;
21647;SDS011;10985;54.182;7.890;2023-08-01T09:50:25;4.45;;;1.55;;
21647;SDS011;10985;54.182;7.890;2023-08-01T09:52:50;5.78;;;2.20;;
21647;SDS011;10985;54.182;7.890;2023-08-01T09:55:26;6.45;;;1.45;;
21647;SDS011;10985;54.182;7.890;2023-08-01T09:57:58;6.72;;;1.30;;
21647;SDS011;10985;54.182;7.890;2023-08-01T10:00:30;6.47;;;1.90;;
21647;SDS011;10985;54.182;7.890;2023-08-01T10:02:59;6.47;;;2.00;;
21647;SDS011;10985;54.182;7.890;2023-08-01T10:05:26;5.22;;;1.58;;
21647;SDS011;10985;54.182;7.890;2023-08-01T10:07:55;5.93;;;1.30;;
21647;SDS011;10985;54.182;7.890;2023-08-01T10:10:24;8.07;;;1.25;;
21647;SDS011;10985;54.182;7.890;2023-08-01T10:12:50;5.38;;;1.25;;
21647;SDS011;10985;54.182;7.890;2023-08-01T10:15:18;3.35;;;1.48;;
21647;SDS011;10985;54.182;7.890;2023-08-01T10:17:44;3.10;;;1.38;;
21647;SDS011;10985;54.182;7.890;2023-08-01T10:20:10;6.35;;;1.35;;
21647;SDS011;10985;54.182;7.890;2023-08-01T10:22:37;5.32;;;1.30;;
21647;SDS011;10985;54.182;7.890;2023-08-01T10:25:04;3.08;;;1.17;;
21647;SDS011;10985;54.182;7.890;2023-08-01T10:27:30;4.38;;;0.90;;
21647;SDS011;10985;54.182;7.890;2023-08-01T10:29:56;3.97;;;0.90;;
21647;SDS011;10985;54.182;7.890;2023-08-01T10:32:32;5.13;;;1.05;;
21647;SDS011;10985;54.182;7.890;2023-08-01T10:35:02;3.60;;;0.90;;
21647;SDS011;10985;54.182;7.890;2023-08-01T10:37:41;4.63;;;1.00;;
21647;SDS011;10985;54.182;7.890;2023-08-01T10:40:08;2.70;;;1.17;;
21647;SDS011;10985;54.182;7.890;2023-08-01T10:42:41;5.03;;;1.15;;
21647;SDS011;10985;54.182;7.890;2023-08-01T10:45:18;5.05;;;1.30;;
21647;SDS011;10985;54.182;7.890;2023-08-01T10:47:48;5.65;;;1.30;;
21647;SDS011;10985;54.182;7.890;2023-08-01T10:50:15;6.93;;;1.80;;
21647;SDS011;10985;54.182;7.890;2023-08-01T10:52:41;2.47;;;1.10;;
21647;SDS011;10985;54.182;7.890;2023-08-01T10:55:07;4.75;;;1.50;;
21647;SDS011;10985;54.182;7.890;2023-08-01T10:57:38;5.30;;;1.23;;
21647;SDS011;10985;54.182;7.890;2023-08-01T11:00:11;7.05;;;1.10;;
21647;SDS011;10985;54.182;7.890;2023-08-01T11:02:41;5.85;;;1.20;;
21647;SDS011;10985;54.182;7.890;2023-08-01T11:05:07;7.72;;;1.20;;
21647;SDS011;10985;54.182;7.890;2023-08-01T11:07:33;4.70;;;1.27;;
21647;SDS011;10985;54.182;7.890;2023-08-01T11:12:36;4.15;;;1.02;;
21647;SDS011;10985;54.182;7.890;2023-08-01T11:15:04;4.72;;;1.20;;
21647;SDS011;10985;54.182;7.890;2023-08-01T11:17:32;6.63;;;1.52;;
21647;SDS011;10985;54.182;7.890;2023-08-01T11:20:02;4.45;;;1.00;;
21647;SDS011;10985;54.182;7.890;2023-08-01T11:22:32;5.40;;;1.65;;
21647;SDS011;10985;54.182;7.890;2023-08-01T11:24:58;5.45;;;2.08;;
21647;SDS011;10985;54.182;7.890;2023-08-01T11:27:24;6.18;;;1.77;;
21647;SDS011;10985;54.182;7.890;2023-08-01T11:29:51;9.48;;;2.22;;
21647;SDS011;10985;54.182;7.890;2023-08-01T11:32:17;5.85;;;1.95;;
21647;SDS011;10985;54.182;7.890;2023-08-01T11:34:45;8.38;;;3.78;;
21647;SDS011;10985;54.182;7.890;2023-08-01T11:37:11;9.15;;;3.15;;
21647;SDS011;10985;54.182;7.890;2023-08-01T11:39:40;8.18;;;1.85;;
21647;SDS011;10985;54.182;7.890;2023-08-01T11:42:06;7.55;;;1.75;;
21647;SDS011;10985;54.182;7.890;2023-08-01T11:44:32;9.75;;;2.08;;
21647;SDS011;10985;54.182;7.890;2023-08-01T11:46:57;6.03;;;2.00;;
21647;SDS011;10985;54.182;7.890;2023-08-01T11:49:23;7.25;;;1.23;;
21647;SDS011;10985;54.182;7.890;2023-08-01T11:51:49;3.90;;;1.15;;
21647;SDS011;10985;54.182;7.890;2023-08-01T11:54:15;9.73;;;1.50;;
21647;SDS011;10985;54.182;7.890;2023-08-01T11:56:42;5.03;;;1.42;;
21647;SDS011;10985;54.182;7.890;2023-08-01T11:59:15;8.20;;;2.28;;
21647;SDS011;10985;54.182;7.890;2023-08-01T12:01:42;6.30;;;1.50;;
21647;SDS011;10985;54.182;7.890;2023-08-01T12:04:09;9.15;;;4.15;;
21647;SDS011;10985;54.182;7.890;2023-08-01T12:06:35;5.15;;;2.00;;
21647;SDS011;10985;54.182;7.890;2023-08-01T12:09:08;6.43;;;1.60;;
21647;SDS011;10985;54.182;7.890;2023-08-01T12:11:38;9.95;;;2.40;;
21647;SDS011;10985;54.182;7.890;2023-08-01T12:16:35;6.32;;;1.33;;
21647;SDS011;10985;54.182;7.890;2023-08-01T12:19:01;5.28;;;1.27;;
21647;SDS011;10985;54.182;7.890;2023-08-01T12:21:28;6.75;;;1.45;;
21647;SDS011;10985;54.182;7.890;2023-08-01T12:23:54;3.15;;;1.17;;
21647;SDS011;10985;54.182;7.890;2023-08-01T12:26:19;3.38;;;1.05;;
21647;SDS011;10985;54.182;7.890;2023-08-01T12:28:45;5.40;;;1.10;;
21647;SDS011;10985;54.182;7.890;2023-08-01T12:31:14;4.68;;;1.58;;
21647;SDS011;10985;54.182;7.890;2023-08-01T12:33:41;3.40;;;1.30;;
21647;SDS011;10985;54.182;7.890;2023-08-01T12:36:07;4.00;;;1.23;;
21647;SDS011;10985;54.182;7.890;2023-08-01T12:38:32;5.75;;;1.48;;
21647;SDS011;10985;54.182;7.890;2023-08-01T12:40:57;6.85;;;1.80;;
21647;SDS011;10985;54.182;7.890;2023-08-01T12:43:23;4.25;;;1.38;;
21647;SDS011;10985;54.182;7.890;2023-08-01T12:45:48;5.85;;;1.83;;
21647;SDS011;10985;54.182;7.890;2023-08-01T12:48:14;5.25;;;1.50;;
21647;SDS011;10985;54.182;7.890;2023-08-01T12:50:43;7.22;;;1.55;;
21647;SDS011;10985;54.182;7.890;2023-08-01T12:53:10;6.78;;;1.75;;
21647;SDS011;10985;54.182;7.890;2023-08-01T12:55:37;5.93;;;1.60;;
21647;SDS011;10985;54.182;7.890;2023-08-01T12:58:02;9.35;;;2.00;;
21647;SDS011;10985;54.182;7.890;2023-08-01T13:00:29;11.30;;;1.98;;
21647;SDS011;10985;54.182;7.890;2023-08-01T13:02:55;6.57;;;1.77;;
21647;SDS011;10985;54.182;7.890;2023-08-01T13:05:21;6.32;;;1.50;;
21647;SDS011;10985;54.182;7.890;2023-08-01T13:07:46;11.05;;;2.08;;
21647;SDS011;10985;54.182;7.890;2023-08-01T13:10:12;5.50;;;1.80;;
21647;SDS011;10985;54.182;7.890;2023-08-01T13:12:37;6.72;;;1.48;;
21647;SDS011;10985;54.182;7.890;2023-08-01T13:15:03;6.38;;;1.58;;
21647;SDS011;10985;54.182;7.890;2023-08-01T13:17:29;4.93;;;2.00;;
21647;SDS011;10985;54.182;7.890;2023-08-01T13:19:55;8.57;;;2.53;;
21647;SDS011;10985;54.182;7.890;2023-08-01T13:22:20;4.72;;;1.83;;
21647;SDS011;10985;54.182;7.890;2023-08-01T13:24:46;8.32;;;1.63;;
21647;SDS011;10985;54.182;7.890;2023-08-01T13:27:12;10.10;;;1.70;;
21647;SDS011;10985;54.182;7.890;2023-08-01T13:29:38;7.50;;;1.50;;
21647;SDS011;10985;54.182;7.890;2023-08-01T13:32:05;9.43;;;2.90;;
21647;SDS011;10985;54.182;7.890;2023-08-01T13:34:32;8.43;;;2.65;;
21647;SDS011;10985;54.182;7.890;2023-08-01T13:36:57;15.35;;;4.90;;
21647;SDS011;10985;54.182;7.890;2023-08-01T13:39:23;31.98;;;19.92;;
21647;SDS011;10985;54.182;7.890;2023-08-01T13:41:48;12.05;;;4.90;;
21647;SDS011;10985;54.182;7.890;2023-08-01T13:44:14;8.35;;;3.28;;
21647;SDS011;10985;54.182;7.890;2023-08-01T13:46:39;6.70;;;2.17;;
21647;SDS011;10985;54.182;7.890;2023-08-01T13:49:05;6.00;;;1.98;;
21647;SDS011;10985;54.182;7.890;2023-08-01T13:51:32;7.90;;;2.30;;
21647;SDS011;10985;54.182;7.890;2023-08-01T13:53:58;9.57;;;2.10;;
21647;SDS011;10985;54.182;7.890;2023-08-01T13:56:24;10.98;;;2.47;;
21647;SDS011;10985;54.182;7.890;2023-08-01T13:58:50;9.15;;;2.40;;
21647;SDS011;10985;54.182;7.890;2023-08-01T14:01:16;6.15;;;1.95;;
21647;SDS011;10985;54.182;7.890;2023-08-01T14:03:43;7.75;;;2.28;;
21647;SDS011;10985;54.182;7.890;2023-08-01T14:06:10;10.88;;;2.22;;
21647;SDS011;10985;54.182;7.890;2023-08-01T14:08:37;7.63;;;2.47;;
21647;SDS011;10985;54.182;7.890;2023-08-01T14:11:04;10.77;;;2.60;;
21647;SDS011;10985;54.182;7.890;2023-08-01T14:13:32;8.57;;;2.55;;
21647;SDS011;10985;54.182;7.890;2023-08-01T14:15:58;12.30;;;4.10;;
21647;SDS011;10985;54.182;7.890;2023-08-01T14:18:25;8.27;;;3.05;;
21647;SDS011;10985;54.182;7.890;2023-08-01T14:20:50;5.95;;;2.00;;
21647;SDS011;10985;54.182;7.890;2023-08-01T14:23:16;7.65;;;2.17;;
21647;SDS011;10985;54.182;7.890;2023-08-01T14:25:42;7.18;;;2.15;;
21647;SDS011;10985;54.182;7.890;2023-08-01T14:28:08;8.63;;;1.58;;
21647;SDS011;10985;54.182;7.890;2023-08-01T14:30:34;8.35;;;2.75;;
21647;SDS011;10985;54.182;7.890;2023-08-01T14:33:00;11.20;;;2.90;;
21647;SDS011;10985;54.182;7.890;2023-08-01T14:35:26;11.90;;;2.17;;
21647;SDS011;10985;54.182;7.890;2023-08-01T14:37:52;9.40;;;2.15;;
21647;SDS011;10985;54.182;7.890;2023-08-01T14:40:18;9.85;;;2.17;;
21647;SDS011;10985;54.182;7.890;2023-08-01T14:42:43;9.27;;;2.42;;
21647;SDS011;10985;54.182;7.890;2023-08-01T14:45:09;11.88;;;2.63;;
21647;SDS011;10985;54.182;7.890;2023-08-01T14:47:34;11.77;;;2.17;;
21647;SDS011;10985;54.182;7.890;2023-08-01T14:50:02;12.40;;;2.28;;